createdAt,value
2022-10-20T00:01:24.362Z,10.11
2022-10-20T00:03:52.828Z,10.13
2022-10-20T00:06:21.799Z,10.07
2022-10-20T00:08:50.032Z,10.00
2022-10-20T00:11:20.607Z,9.99
2022-10-20T00:13:51.957Z,9.89
2022-10-20T00:16:20.988Z,9.82
2022-10-20T00:18:48.623Z,9.76
2022-10-20T00:21:22.716Z,9.78
2022-10-20T00:23:51.126Z,9.76
2022-10-20T00:26:21.181Z,9.80
2022-10-20T00:28:49.915Z,9.79
2022-10-20T00:31:20.063Z,9.87
2022-10-20T00:33:48.020Z,9.93
2022-10-20T00:36:19.190Z,10.06
2022-10-20T00:38:47.357Z,10.08
2022-10-20T00:41:17.731Z,10.14
2022-10-20T00:43:51.506Z,10.10
2022-10-20T00:46:43.980Z,10.08
2022-10-20T00:49:23.526Z,10.03
2022-10-20T00:51:54.441Z,10.01
2022-10-20T00:54:26.848Z,10.01
2022-10-20T00:56:57.000Z,9.96
2022-10-20T00:59:33.098Z,9.97
2022-10-20T01:02:02.582Z,10.03
2022-10-20T01:04:32.206Z,10.06
2022-10-20T01:07:00.412Z,10.07
2022-10-20T01:09:28.415Z,10.06
2022-10-20T01:12:23.676Z,10.06
2022-10-20T01:15:08.272Z,10.10
2022-10-20T01:18:08.797Z,10.06
2022-10-20T01:21:01.048Z,10.00
2022-10-20T01:24:03.637Z,9.89
2022-10-20T01:26:36.930Z,9.75
2022-10-20T01:29:28.974Z,9.58
2022-10-20T01:32:18.867Z,9.35
2022-10-20T01:35:32.926Z,9.25
2022-10-20T01:38:31.200Z,9.21
2022-10-20T01:41:46.411Z,9.12
2022-10-20T01:44:18.593Z,9.07
2022-10-20T01:46:48.046Z,9.11
2022-10-20T01:49:16.540Z,9.18
2022-10-20T01:51:44.110Z,9.14
2022-10-20T01:54:44.454Z,9.15
2022-10-20T01:57:59.643Z,9.15
2022-10-20T02:00:27.523Z,9.11
2022-10-20T02:03:29.936Z,9.18
2022-10-20T02:06:29.947Z,9.27
2022-10-20T02:09:07.199Z,9.24
2022-10-20T02:11:48.091Z,9.20
2022-10-20T02:14:20.371Z,9.18
2022-10-20T02:16:54.512Z,9.18
2022-10-20T02:19:26.502Z,9.11
2022-10-20T02:21:56.520Z,9.10
2022-10-20T02:24:32.051Z,9.10
2022-10-20T02:27:04.635Z,9.00
2022-10-20T02:29:41.550Z,8.94
2022-10-20T02:32:11.993Z,8.87
2022-10-20T02:34:42.404Z,8.80
2022-10-20T02:37:10.815Z,8.93
2022-10-20T02:39:38.423Z,8.94
2022-10-20T02:42:06.699Z,8.99
2022-10-20T02:44:34.174Z,9.01
2022-10-20T02:47:01.631Z,8.97
2022-10-20T02:49:29.130Z,8.96
2022-10-20T02:51:56.744Z,8.90
2022-10-20T02:54:24.223Z,8.88
2022-10-20T02:56:51.665Z,8.88
2022-10-20T02:59:19.227Z,8.72
2022-10-20T03:01:47.237Z,8.59
2022-10-20T03:04:14.902Z,8.48
2022-10-20T03:06:42.460Z,8.32
2022-10-20T03:09:10.029Z,8.22
2022-10-20T03:11:37.471Z,8.14
2022-10-20T03:14:05.082Z,8.04
2022-10-20T03:16:32.531Z,7.95
2022-10-20T03:19:03.977Z,7.78
2022-10-20T03:21:34.145Z,7.65
2022-10-20T03:24:01.689Z,7.55
2022-10-20T03:26:29.164Z,7.52
2022-10-20T03:28:56.647Z,7.39
2022-10-20T03:31:24.109Z,7.36
2022-10-20T03:33:51.665Z,7.25
2022-10-20T03:36:19.199Z,7.19
2022-10-20T03:38:46.650Z,7.20
2022-10-20T03:41:14.323Z,7.22
2022-10-20T03:43:42.127Z,7.11
2022-10-20T03:46:11.932Z,7.07
2022-10-20T03:48:40.334Z,7.07
2022-10-20T03:51:11.772Z,7.18
2022-10-20T03:53:39.402Z,7.19
2022-10-20T03:56:10.123Z,7.15
2022-10-20T03:58:37.613Z,7.22
2022-10-20T04:01:06.807Z,7.16
2022-10-20T04:03:34.224Z,7.28
2022-10-20T04:06:01.742Z,7.32
2022-10-20T04:08:29.248Z,7.36
2022-10-20T04:10:58.474Z,7.35
2022-10-20T04:13:25.953Z,7.30
2022-10-20T04:15:53.444Z,7.32
2022-10-20T04:18:20.976Z,7.26
2022-10-20T04:20:49.051Z,7.33
2022-10-20T04:23:16.538Z,7.33
2022-10-20T04:25:48.536Z,7.33
2022-10-20T04:28:18.259Z,7.29
2022-10-20T04:30:47.092Z,7.32
2022-10-20T04:33:14.963Z,7.33
2022-10-20T04:35:42.998Z,7.32
2022-10-20T04:38:10.479Z,7.33
2022-10-20T04:40:37.938Z,7.26
2022-10-20T04:43:05.389Z,7.20
2022-10-20T04:45:32.867Z,7.15
2022-10-20T04:48:00.364Z,7.14
2022-10-20T04:50:27.797Z,7.09
2022-10-20T04:53:09.935Z,7.04
2022-10-20T04:55:37.773Z,7.11
2022-10-20T04:58:05.191Z,7.04
2022-10-20T05:00:32.645Z,7.05
2022-10-20T05:03:00.168Z,7.05
2022-10-20T05:05:27.907Z,7.02
2022-10-20T05:07:55.344Z,6.99
2022-10-20T05:10:22.797Z,6.95
2022-10-20T05:12:50.306Z,6.97
2022-10-20T05:15:17.757Z,7.05
2022-10-20T05:17:45.207Z,7.14
2022-10-20T05:20:12.661Z,7.20
2022-10-20T05:22:40.191Z,7.40
2022-10-20T05:25:31.406Z,7.55
2022-10-20T05:27:55.723Z,7.73
2022-10-20T05:30:23.167Z,7.90
2022-10-20T05:32:50.610Z,8.16
2022-10-20T05:35:18.065Z,8.45
2022-10-20T05:37:46.294Z,8.76
2022-10-20T05:40:13.981Z,9.20
2022-10-20T05:42:41.441Z,9.59
2022-10-20T05:45:09.694Z,10.48
2022-10-20T05:47:37.354Z,12.25
2022-10-20T05:50:05.333Z,13.97
2022-10-20T05:52:35.603Z,14.91
2022-10-20T05:55:05.017Z,15.46
2022-10-20T05:57:32.512Z,15.53
2022-10-20T05:59:59.967Z,16.18
2022-10-20T06:02:27.550Z,16.27
2022-10-20T06:04:55.006Z,16.18
2022-10-20T06:07:22.452Z,16.07
2022-10-20T06:09:49.913Z,16.89
2022-10-20T06:12:17.451Z,17.72
2022-10-20T06:14:44.945Z,18.09
2022-10-20T06:17:12.415Z,18.16
2022-10-20T06:19:39.874Z,18.13
2022-10-20T06:22:07.335Z,18.14
2022-10-20T06:24:35.073Z,17.40
2022-10-20T06:27:02.508Z,16.89
2022-10-20T06:29:29.975Z,17.53
2022-10-20T06:31:57.431Z,18.02
2022-10-20T06:34:26.231Z,18.12
2022-10-20T06:36:53.911Z,18.71
2022-10-20T06:39:24.170Z,19.07
2022-10-20T06:41:54.843Z,20.38
2022-10-20T06:44:24.478Z,20.73
2022-10-20T06:46:52.621Z,20.57
2022-10-20T06:49:20.994Z,19.40
2022-10-20T06:51:49.480Z,20.12
2022-10-20T06:54:18.140Z,20.11
2022-10-20T06:56:45.657Z,19.73
2022-10-20T06:59:13.133Z,20.45
2022-10-20T07:01:40.808Z,21.23
2022-10-20T07:04:13.473Z,20.87
2022-10-20T07:06:43.839Z,21.62
2022-10-20T07:09:19.309Z,21.58
2022-10-20T07:11:51.875Z,21.03
2022-10-20T07:14:20.232Z,22.43
2022-10-20T07:16:47.724Z,22.96
2022-10-20T07:19:15.784Z,22.65
2022-10-20T07:21:45.674Z,23.46
2022-10-20T07:24:14.264Z,23.56
2022-10-20T07:26:42.735Z,24.15
2022-10-20T07:29:11.392Z,25.22
2022-10-20T07:31:47.884Z,26.10
2022-10-20T07:34:25.628Z,25.27
2022-10-20T07:36:55.446Z,23.56
2022-10-20T07:39:23.722Z,22.52
2022-10-20T07:41:51.464Z,23.34
2022-10-20T07:44:19.916Z,24.40
2022-10-20T07:46:47.468Z,25.61
2022-10-20T07:52:02.415Z,22.89
2022-10-20T07:54:29.983Z,23.29
2022-10-20T07:56:57.667Z,23.81
2022-10-20T07:59:25.145Z,24.81
2022-10-20T08:01:55.896Z,25.43
2022-10-20T08:04:25.008Z,25.52
2022-10-20T08:06:52.523Z,26.69
2022-10-20T08:09:19.827Z,27.31
2022-10-20T08:11:50.357Z,27.78
2022-10-20T08:14:20.440Z,27.92
2022-10-20T08:22:12.979Z,30.94
2022-10-20T08:24:40.615Z,31.48
2022-10-20T08:27:08.139Z,31.23
2022-10-20T08:29:37.215Z,31.81
2022-10-20T08:32:05.778Z,30.84
2022-10-20T08:34:33.446Z,30.82
2022-10-20T08:37:00.914Z,30.13
2022-10-20T08:39:28.451Z,29.02
2022-10-20T08:42:08.491Z,29.12
2022-10-20T08:44:40.056Z,29.50
2022-10-20T08:47:40.847Z,29.62
2022-10-20T08:50:16.118Z,30.69
2022-10-20T08:52:47.618Z,30.15
2022-10-20T08:55:29.202Z,31.33
2022-10-20T08:58:03.471Z,31.86
2022-10-20T09:00:35.690Z,33.01
2022-10-20T09:03:14.626Z,33.59
2022-10-20T09:05:46.731Z,32.24
2022-10-20T09:08:14.368Z,33.30
2022-10-20T09:10:52.616Z,33.33
2022-10-20T09:13:31.007Z,32.80
2022-10-20T09:16:40.501Z,32.71
2022-10-20T09:19:22.585Z,30.84
2022-10-20T09:21:57.491Z,27.61
2022-10-20T09:24:30.731Z,27.33
2022-10-20T09:27:21.702Z,26.12
2022-10-20T09:29:49.703Z,28.10
2022-10-20T09:32:46.180Z,30.14
2022-10-20T09:35:36.425Z,29.63
2022-10-20T09:38:09.758Z,31.00
2022-10-20T09:40:54.794Z,30.80
2022-10-20T09:43:22.562Z,32.16
2022-10-20T09:46:06.292Z,32.22
2022-10-20T09:48:47.894Z,32.22
2022-10-20T09:51:22.602Z,34.56
2022-10-20T09:53:54.185Z,35.38
2022-10-20T09:56:36.906Z,33.19
2022-10-20T09:59:22.360Z,32.88
2022-10-20T10:02:15.797Z,31.96
2022-10-20T10:04:47.195Z,31.55
2022-10-20T10:07:26.521Z,32.29
2022-10-20T10:10:05.682Z,32.37
2022-10-20T10:12:36.490Z,31.71
2022-10-20T10:15:36.071Z,32.15
2022-10-20T10:18:21.584Z,33.38
2022-10-20T10:21:06.980Z,35.96
2022-10-20T10:23:49.494Z,33.93
2022-10-20T10:26:45.960Z,34.11
2022-10-20T10:29:25.166Z,33.21
2022-10-20T10:32:24.210Z,33.96
2022-10-20T10:35:08.166Z,32.94
2022-10-20T10:37:40.364Z,32.84
2022-10-20T10:40:20.916Z,31.27
2022-10-20T10:43:16.751Z,31.11
2022-10-20T10:45:52.424Z,32.10
2022-10-20T10:48:45.823Z,29.46
2022-10-20T10:52:21.494Z,27.68
2022-10-20T10:55:48.695Z,31.00
2022-10-20T10:58:19.624Z,29.22
2022-10-20T11:01:19.941Z,25.49
2022-10-20T11:04:28.559Z,25.08
2022-10-20T11:07:40.047Z,27.55
2022-10-20T11:10:44.390Z,24.55
2022-10-20T11:13:32.716Z,22.98
2022-10-20T11:16:42.392Z,25.39
2022-10-20T11:19:44.052Z,24.71
2022-10-20T11:22:30.102Z,25.01
2022-10-20T11:25:25.795Z,26.14
2022-10-20T11:27:57.506Z,27.53
2022-10-20T11:30:27.437Z,27.14
2022-10-20T11:33:20.856Z,28.81
2022-10-20T11:36:10.962Z,27.34
2022-10-20T11:38:53.843Z,26.38
2022-10-20T11:41:35.291Z,25.10
2022-10-20T11:44:13.504Z,24.64
2022-10-20T11:47:14.600Z,25.43
2022-10-20T11:49:43.439Z,26.08
2022-10-20T11:53:00.515Z,24.95
2022-10-20T11:56:23.052Z,24.60
2022-10-20T11:59:49.575Z,21.83
2022-10-20T12:02:29.490Z,20.29
2022-10-20T12:05:12.842Z,19.42
2022-10-20T12:08:17.600Z,19.71
2022-10-20T12:11:05.846Z,19.77
2022-10-20T12:14:06.740Z,19.87
2022-10-20T12:16:52.220Z,19.57
2022-10-20T12:19:30.078Z,19.56
2022-10-20T12:22:26.470Z,19.04
2022-10-20T12:24:53.775Z,19.08
2022-10-20T12:27:27.670Z,18.74
2022-10-20T12:30:38.153Z,18.26
2022-10-20T12:33:46.443Z,17.84
2022-10-20T12:36:34.776Z,17.74
2022-10-20T12:39:15.929Z,17.51
2022-10-20T12:41:57.484Z,17.41
2022-10-20T12:44:28.679Z,17.40
2022-10-20T12:47:05.353Z,17.22
2022-10-20T12:49:34.695Z,17.37
2022-10-20T12:52:07.394Z,17.30
2022-10-20T12:54:48.449Z,17.36
2022-10-20T12:57:38.436Z,17.36
2022-10-20T13:00:08.668Z,17.31
2022-10-20T13:02:52.023Z,17.09
2022-10-20T13:05:19.422Z,16.89
2022-10-20T13:07:49.663Z,16.76
2022-10-20T13:10:39.002Z,16.83
2022-10-20T13:13:06.366Z,16.73
2022-10-20T13:15:44.888Z,16.62
2022-10-20T13:18:12.588Z,16.67
2022-10-20T13:21:16.128Z,16.67
2022-10-20T13:23:54.386Z,16.64
2022-10-20T13:26:31.123Z,16.58
2022-10-20T13:29:01.713Z,16.54
2022-10-20T13:31:58.181Z,16.47
2022-10-20T13:35:02.384Z,16.37
2022-10-20T13:37:56.563Z,16.31
2022-10-20T13:41:03.397Z,16.32
2022-10-20T13:44:09.880Z,16.24
2022-10-20T13:46:56.146Z,16.21
2022-10-20T13:49:29.415Z,16.14
2022-10-20T13:52:11.431Z,16.11
2022-10-20T13:54:45.715Z,16.06
2022-10-20T13:57:29.099Z,16.04
2022-10-20T14:00:19.676Z,15.99
2022-10-20T14:03:17.888Z,15.82
2022-10-20T14:05:45.347Z,15.82
2022-10-20T14:08:17.829Z,15.76
2022-10-20T14:11:00.114Z,15.79
2022-10-20T14:13:34.429Z,15.70
2022-10-20T14:16:07.424Z,15.73
2022-10-20T14:18:39.681Z,15.69
2022-10-20T14:21:19.101Z,15.59
2022-10-20T14:23:50.230Z,15.58
2022-10-20T14:26:22.587Z,15.56
2022-10-20T14:28:52.977Z,15.55
2022-10-20T14:31:25.343Z,15.52
2022-10-20T14:33:53.703Z,15.52
2022-10-20T14:36:24.648Z,15.51
2022-10-20T14:39:04.207Z,15.46
2022-10-20T14:41:35.928Z,15.35
2022-10-20T14:44:16.246Z,15.28
2022-10-20T14:46:50.735Z,15.12
2022-10-20T14:49:23.698Z,15.05
2022-10-20T14:51:59.910Z,14.98
2022-10-20T14:54:32.579Z,14.88
2022-10-20T14:57:30.811Z,14.80
2022-10-20T15:00:25.332Z,14.67
2022-10-20T15:02:56.896Z,14.57
2022-10-20T15:05:42.263Z,14.42
2022-10-20T15:08:17.692Z,14.32
2022-10-20T15:10:46.154Z,14.25
2022-10-20T15:13:31.569Z,14.11
2022-10-20T15:16:02.301Z,14.04
2022-10-20T15:18:30.633Z,13.90
2022-10-20T15:20:58.067Z,13.78
2022-10-20T15:23:29.649Z,13.59
2022-10-20T15:26:04.894Z,13.46
2022-10-20T15:28:50.936Z,13.26
2022-10-20T15:31:28.395Z,13.11
2022-10-20T15:33:58.050Z,12.94
2022-10-20T15:36:33.679Z,12.75
2022-10-20T15:39:02.970Z,12.64
2022-10-20T15:41:33.818Z,12.50
2022-10-20T15:44:16.151Z,12.33
2022-10-20T15:46:47.167Z,12.17
2022-10-20T15:49:14.862Z,12.12
2022-10-20T15:51:46.301Z,12.06
2022-10-20T15:54:20.602Z,12.00
2022-10-20T15:56:48.630Z,11.95
2022-10-20T15:59:16.057Z,11.92
2022-10-20T16:01:43.740Z,11.79
2022-10-20T16:04:28.660Z,11.74
2022-10-20T16:06:58.864Z,11.71
2022-10-20T16:09:27.944Z,11.67
2022-10-20T16:11:55.464Z,11.65
2022-10-20T16:14:22.973Z,11.61
2022-10-20T16:16:50.552Z,11.54
2022-10-20T16:19:18.021Z,11.50
2022-10-20T16:21:45.557Z,11.44
2022-10-20T16:24:12.954Z,11.33
2022-10-20T16:26:40.488Z,11.26
2022-10-20T16:29:07.925Z,11.24
2022-10-20T16:31:35.397Z,11.24
2022-10-20T16:34:02.882Z,11.20
2022-10-20T16:36:30.287Z,11.14
2022-10-20T16:38:57.965Z,11.06
2022-10-20T16:41:25.425Z,10.93
2022-10-20T16:43:55.404Z,10.76
2022-10-20T16:46:25.033Z,10.55
2022-10-20T16:48:52.471Z,10.40
2022-10-20T16:51:19.985Z,10.28
2022-10-20T16:53:48.298Z,10.27
2022-10-20T16:56:19.833Z,10.21
2022-10-20T16:58:49.430Z,10.17
2022-10-20T17:01:19.649Z,10.08
2022-10-20T17:03:52.629Z,10.04
2022-10-20T17:06:23.956Z,9.97
2022-10-20T17:08:53.114Z,9.90
2022-10-20T17:11:28.930Z,9.75
2022-10-20T17:13:57.685Z,9.60
2022-10-20T17:16:30.075Z,9.55
2022-10-20T17:19:00.322Z,9.48
2022-10-20T17:21:30.894Z,9.49
2022-10-20T17:23:58.984Z,9.45
2022-10-20T17:26:30.545Z,9.41
2022-10-20T17:29:01.517Z,9.39
2022-10-20T17:31:29.599Z,9.41
2022-10-20T17:34:00.611Z,9.48
2022-10-20T17:36:30.124Z,9.58
2022-10-20T17:39:02.217Z,9.62
2022-10-20T17:41:30.124Z,9.70
2022-10-20T17:44:01.289Z,9.66
2022-10-20T17:46:28.988Z,9.59
2022-10-20T17:48:56.534Z,9.60
2022-10-20T17:51:28.942Z,9.58
2022-10-20T17:53:59.386Z,9.59
2022-10-20T17:56:31.450Z,9.65
2022-10-20T17:59:02.900Z,9.63
2022-10-20T18:01:34.310Z,9.60
2022-10-20T18:04:05.557Z,9.55
2022-10-20T18:06:35.499Z,9.52
2022-10-20T18:09:13.073Z,9.42
2022-10-20T18:11:45.812Z,9.42
2022-10-20T18:14:13.782Z,9.38
2022-10-20T18:16:41.719Z,9.30
2022-10-20T18:19:18.333Z,9.28
2022-10-20T18:21:46.217Z,9.22
2022-10-20T18:24:15.790Z,9.22
2022-10-20T18:26:44.657Z,9.20
2022-10-20T18:29:14.695Z,9.17
2022-10-20T18:31:45.209Z,9.14
2022-10-20T18:34:22.661Z,9.10
2022-10-20T18:36:53.703Z,9.07
2022-10-20T18:39:21.225Z,9.04
2022-10-20T18:41:52.286Z,9.05
2022-10-20T18:44:20.744Z,9.03
2022-10-20T18:46:48.077Z,9.01
2022-10-20T18:49:21.555Z,8.99
2022-10-20T18:51:49.918Z,8.96
2022-10-20T18:54:21.378Z,8.90
2022-10-20T18:56:48.848Z,8.88
2022-10-20T18:59:17.230Z,8.83
2022-10-20T19:01:45.301Z,8.79
2022-10-20T19:04:13.194Z,8.72
2022-10-20T19:06:47.622Z,8.72
2022-10-20T19:09:19.948Z,8.67
2022-10-20T19:14:18.039Z,8.60
2022-10-20T19:16:47.053Z,8.56
2022-10-20T19:19:15.722Z,8.56
2022-10-20T19:21:43.299Z,8.49
2022-10-20T19:24:19.363Z,8.49
2022-10-20T19:26:57.450Z,8.45
2022-10-20T19:29:35.968Z,8.42
2022-10-20T19:32:06.170Z,8.36
2022-10-20T19:34:37.819Z,8.28
2022-10-20T19:37:06.562Z,8.25
2022-10-20T19:39:39.264Z,8.20
2022-10-20T19:42:09.202Z,8.14
2022-10-20T19:44:37.929Z,8.14
2022-10-20T19:47:06.417Z,8.08
2022-10-20T19:49:34.060Z,8.09
2022-10-20T19:52:01.623Z,8.07
2022-10-20T19:54:29.291Z,8.04
2022-10-20T19:56:56.994Z,8.02
2022-10-20T19:59:25.031Z,8.02
2022-10-20T20:01:52.759Z,8.02
2022-10-20T20:04:20.665Z,7.97
2022-10-20T20:06:48.388Z,7.98
2022-10-20T20:09:16.480Z,7.95
2022-10-20T20:11:44.580Z,7.97
2022-10-20T20:14:19.019Z,7.95
2022-10-20T20:16:47.628Z,7.93
2022-10-20T20:19:17.199Z,7.88
2022-10-20T20:21:46.004Z,7.90
2022-10-20T20:24:14.753Z,7.88
2022-10-20T20:26:44.442Z,7.86
2022-10-20T20:29:12.047Z,7.83
2022-10-20T20:31:39.459Z,7.84
2022-10-20T20:34:06.897Z,7.80
2022-10-20T20:36:34.440Z,7.77
2022-10-20T20:39:02.238Z,7.73
2022-10-20T20:41:33.041Z,7.74
2022-10-20T20:44:04.265Z,7.69
2022-10-20T20:46:36.305Z,7.62
2022-10-20T20:49:03.726Z,7.53
2022-10-20T20:51:33.837Z,7.39
2022-10-20T20:54:03.373Z,7.19
2022-10-20T20:56:31.500Z,7.07
2022-10-20T20:58:58.933Z,6.87
2022-10-20T21:01:28.978Z,6.78
2022-10-20T21:04:03.592Z,6.74
2022-10-20T21:06:49.553Z,6.77
2022-10-20T21:09:20.136Z,6.63
2022-10-20T21:11:49.101Z,6.54
2022-10-20T21:14:16.594Z,6.57
2022-10-20T21:16:44.234Z,6.50
2022-10-20T21:19:11.799Z,6.40
2022-10-20T21:21:44.309Z,6.36
2022-10-20T21:24:13.001Z,6.26
2022-10-20T21:26:40.600Z,6.16
2022-10-20T21:29:08.155Z,6.13
2022-10-20T21:31:36.372Z,6.12
2022-10-20T21:34:05.599Z,6.05
2022-10-20T21:36:35.502Z,6.09
2022-10-20T21:39:06.343Z,6.06
2022-10-20T21:41:36.155Z,5.95
2022-10-20T21:44:06.227Z,5.81
2022-10-20T21:46:42.000Z,5.73
2022-10-20T21:49:15.991Z,5.50
2022-10-20T21:51:53.694Z,5.40
2022-10-20T21:54:25.167Z,5.33
2022-10-20T21:56:54.010Z,5.32
2022-10-20T21:59:30.386Z,5.22
2022-10-20T22:02:01.626Z,5.13
2022-10-20T22:04:30.346Z,5.08
2022-10-20T22:06:59.557Z,4.99
2022-10-20T22:09:28.224Z,4.92
2022-10-20T22:11:58.417Z,4.93
2022-10-20T22:14:26.307Z,4.86
2022-10-20T22:16:55.575Z,4.92
2022-10-20T22:19:25.302Z,4.95
2022-10-20T22:21:54.122Z,4.82
2022-10-20T22:24:22.706Z,4.81
2022-10-20T22:26:51.692Z,4.74
2022-10-20T22:29:21.546Z,4.68
2022-10-20T22:31:50.067Z,4.65
2022-10-20T22:34:17.825Z,4.68
2022-10-20T22:36:45.361Z,4.74
2022-10-20T22:39:14.032Z,4.82
2022-10-20T22:41:41.528Z,4.86
2022-10-20T22:44:09.849Z,4.93
2022-10-20T22:46:37.360Z,5.00
2022-10-20T22:49:04.885Z,5.11
2022-10-20T22:51:32.402Z,5.22
2022-10-20T22:53:59.884Z,5.30
2022-10-20T22:56:27.367Z,5.32
2022-10-20T22:58:55.414Z,5.39
2022-10-20T23:01:23.985Z,5.37
2022-10-20T23:03:52.189Z,5.39
2022-10-20T23:06:24.517Z,5.36
2022-10-20T23:08:55.768Z,5.34
2022-10-20T23:11:24.062Z,5.32
2022-10-20T23:13:52.050Z,5.34
2022-10-20T23:16:20.694Z,5.36
2022-10-20T23:18:48.427Z,5.37
2022-10-20T23:21:15.994Z,5.42
2022-10-20T23:23:45.090Z,5.37
2022-10-20T23:26:13.131Z,5.40
2022-10-20T23:28:40.855Z,5.42
2022-10-20T23:31:14.257Z,5.37
2022-10-20T23:33:44.214Z,5.33
2022-10-20T23:36:14.090Z,5.30
2022-10-20T23:38:42.925Z,5.19
2022-10-20T23:41:10.913Z,5.05
2022-10-20T23:43:38.881Z,4.89
2022-10-20T23:46:07.047Z,4.89
2022-10-20T23:48:35.418Z,4.96
2022-10-20T23:51:02.960Z,5.05
2022-10-20T23:53:30.956Z,5.04
2022-10-20T23:55:58.386Z,5.02
2022-10-20T23:58:26.242Z,5.04
